Terminal Aerodrome Forecast
Issued by NWS Corpus Christi, TX

Home | Current Version | Previous Version | Text Only | Print | Product List | Glossary On
Versions: 1 2 3 4 5 6 7 8 9 10 11 12 13
000
FTUS44 KCRP 250900 AAA
TAFVCT
TAF AMD
KVCT 250911Z 2509/2606 VRB04KT 4SM BR SKC
      TEMPO 2511/2514 6SM BR
     FM252200 12007KT P6SM SKC=

USA.gov is the U.S. government's official web portal to all federal, state and local government web resources and services.